Carlisle, Mississippi
Current Conditions -  °F | °C
As of 3:35 AM on Sunday 23 Nov 2014 (Local Time) from KVKS Reporting Station
Overcast Overcast  
Wind Chill: 63°   Ceiling: 1100
Heat Index: 63°   Visibility: 10mi
Dew Point: 59°   Wind: 9mph
Humidity: 88%   Direction: 140°SE
Pressure: 29.74"   Gusts: 18mph
Location:  31.955°N, 90.8237°W
Report Text: KVKS 230935Z AUTO 14008G16KT 110V170 10SM OVC011 17/15 A2974 RMK A01
Loading
Personal Weather Stations






























Interactive Weather Map New forecast layout! Learn more

10-Day Weather Forecast

Advertisements
Track Severe Weather on mobile